sensor_id;sensor_type;location;lat;lon;timestamp;temperature;humidity
40434;DHT22;26146;51.114;5.654;2023-07-20T00:02:10;18.80;99.90
40434;DHT22;26146;51.114;5.654;2023-07-20T00:06:11;18.60;99.90
40434;DHT22;26146;51.114;5.654;2023-07-20T00:10:12;18.60;99.90
40434;DHT22;26146;51.114;5.654;2023-07-20T00:14:15;18.60;99.90
40434;DHT22;26146;51.114;5.654;2023-07-20T00:18:16;18.60;99.90
40434;DHT22;26146;51.114;5.654;2023-07-20T00:22:17;18.70;99.90
40434;DHT22;26146;51.114;5.654;2023-07-20T00:26:18;18.70;99.90
40434;DHT22;26146;51.114;5.654;2023-07-20T00:30:19;18.70;99.90
40434;DHT22;26146;51.114;5.654;2023-07-20T00:34:20;18.70;99.90
40434;DHT22;26146;51.114;5.654;2023-07-20T00:38:21;18.60;99.90
40434;DHT22;26146;51.114;5.654;2023-07-20T00:42:22;18.50;99.90
40434;DHT22;26146;51.114;5.654;2023-07-20T00:46:26;18.40;99.90
40434;DHT22;26146;51.114;5.654;2023-07-20T00:50:28;18.40;99.90
40434;DHT22;26146;51.114;5.654;2023-07-20T00:54:30;18.30;99.90
40434;DHT22;26146;51.114;5.654;2023-07-20T00:58:31;18.30;99.90
40434;DHT22;26146;51.114;5.654;2023-07-20T01:02:32;18.30;99.90
40434;DHT22;26146;51.114;5.654;2023-07-20T01:10:40;18.40;99.90
40434;DHT22;26146;51.114;5.654;2023-07-20T01:14:44;18.40;99.90
40434;DHT22;26146;51.114;5.654;2023-07-20T01:18:45;18.40;99.90
40434;DHT22;26146;51.114;5.654;2023-07-20T01:23:12;18.60;99.90
40434;DHT22;26146;51.114;5.654;2023-07-20T01:31:41;18.50;99.90
40434;DHT22;26146;51.114;5.654;2023-07-20T01:35:43;18.60;99.90
40434;DHT22;26146;51.114;5.654;2023-07-20T01:39:46;18.60;99.90
40434;DHT22;26146;51.114;5.654;2023-07-20T01:43:47;18.50;99.90
40434;DHT22;26146;51.114;5.654;2023-07-20T01:47:49;18.50;99.90
40434;DHT22;26146;51.114;5.654;2023-07-20T01:51:50;18.40;99.90
40434;DHT22;26146;51.114;5.654;2023-07-20T01:55:53;18.50;99.90
40434;DHT22;26146;51.114;5.654;2023-07-20T01:59:56;18.40;99.90
40434;DHT22;26146;51.114;5.654;2023-07-20T02:03:57;18.40;99.90
40434;DHT22;26146;51.114;5.654;2023-07-20T02:07:58;18.40;99.90
40434;DHT22;26146;51.114;5.654;2023-07-20T02:11:59;18.40;99.90
40434;DHT22;26146;51.114;5.654;2023-07-20T02:16:00;18.30;99.90
40434;DHT22;26146;51.114;5.654;2023-07-20T02:20:01;18.20;99.90
40434;DHT22;26146;51.114;5.654;2023-07-20T02:24:02;18.20;99.90
40434;DHT22;26146;51.114;5.654;2023-07-20T02:28:04;18.00;99.90
40434;DHT22;26146;51.114;5.654;2023-07-20T02:32:05;18.00;99.90
40434;DHT22;26146;51.114;5.654;2023-07-20T02:36:06;18.20;99.90
40434;DHT22;26146;51.114;5.654;2023-07-20T02:40:08;18.10;99.90
40434;DHT22;26146;51.114;5.654;2023-07-20T02:44:09;18.00;99.90
40434;DHT22;26146;51.114;5.654;2023-07-20T02:48:11;17.80;99.90
40434;DHT22;26146;51.114;5.654;2023-07-20T02:52:12;18.10;99.90
40434;DHT22;26146;51.114;5.654;2023-07-20T02:56:13;17.90;99.90
40434;DHT22;26146;51.114;5.654;2023-07-20T03:00:15;17.50;99.90
40434;DHT22;26146;51.114;5.654;2023-07-20T03:04:16;17.60;99.90
40434;DHT22;26146;51.114;5.654;2023-07-20T03:08:17;17.50;99.90
40434;DHT22;26146;51.114;5.654;2023-07-20T03:12:18;17.50;99.90
40434;DHT22;26146;51.114;5.654;2023-07-20T03:16:20;17.40;99.90
40434;DHT22;26146;51.114;5.654;2023-07-20T03:20:21;17.70;99.90
40434;DHT22;26146;51.114;5.654;2023-07-20T03:24:22;17.70;99.90
40434;DHT22;26146;51.114;5.654;2023-07-20T03:28:24;17.80;99.90
40434;DHT22;26146;51.114;5.654;2023-07-20T03:32:25;17.80;99.90
40434;DHT22;26146;51.114;5.654;2023-07-20T03:36:28;17.80;99.90
40434;DHT22;26146;51.114;5.654;2023-07-20T03:40:29;17.80;99.90
40434;DHT22;26146;51.114;5.654;2023-07-20T03:44:30;17.80;99.90
40434;DHT22;26146;51.114;5.654;2023-07-20T03:48:31;17.60;99.90
40434;DHT22;26146;51.114;5.654;2023-07-20T03:52:32;17.70;99.90
40434;DHT22;26146;51.114;5.654;2023-07-20T03:56:33;17.60;99.90
40434;DHT22;26146;51.114;5.654;2023-07-20T04:00:35;17.50;99.90
40434;DHT22;26146;51.114;5.654;2023-07-20T04:04:37;17.40;99.90
40434;DHT22;26146;51.114;5.654;2023-07-20T04:08:38;17.50;99.90
40434;DHT22;26146;51.114;5.654;2023-07-20T04:12:39;17.40;99.90
40434;DHT22;26146;51.114;5.654;2023-07-20T04:16:40;17.40;99.90
40434;DHT22;26146;51.114;5.654;2023-07-20T04:20:41;17.50;99.90
40434;DHT22;26146;51.114;5.654;2023-07-20T04:24:43;17.60;99.90
40434;DHT22;26146;51.114;5.654;2023-07-20T04:28:44;17.50;99.90
40434;DHT22;26146;51.114;5.654;2023-07-20T04:32:45;17.40;99.90
40434;DHT22;26146;51.114;5.654;2023-07-20T04:36:47;17.50;99.90
40434;DHT22;26146;51.114;5.654;2023-07-20T04:40:49;17.70;99.90
40434;DHT22;26146;51.114;5.654;2023-07-20T04:44:50;17.70;99.90
40434;DHT22;26146;51.114;5.654;2023-07-20T04:48:51;17.80;99.90
40434;DHT22;26146;51.114;5.654;2023-07-20T04:52:52;17.70;99.90
40434;DHT22;26146;51.114;5.654;2023-07-20T04:56:54;17.80;99.90
40434;DHT22;26146;51.114;5.654;2023-07-20T05:00:55;17.90;99.90
40434;DHT22;26146;51.114;5.654;2023-07-20T05:04:56;18.00;99.90
40434;DHT22;26146;51.114;5.654;2023-07-20T05:08:56;18.00;99.90
40434;DHT22;26146;51.114;5.654;2023-07-20T05:12:59;18.40;99.90
40434;DHT22;26146;51.114;5.654;2023-07-20T05:17:00;18.70;99.90
40434;DHT22;26146;51.114;5.654;2023-07-20T05:21:00;19.00;99.90
40434;DHT22;26146;51.114;5.654;2023-07-20T05:25:01;18.90;99.90
40434;DHT22;26146;51.114;5.654;2023-07-20T05:29:02;19.00;99.90
40434;DHT22;26146;51.114;5.654;2023-07-20T05:33:03;18.90;99.90
40434;DHT22;26146;51.114;5.654;2023-07-20T05:37:05;18.90;99.90
40434;DHT22;26146;51.114;5.654;2023-07-20T05:41:06;18.90;99.90
40434;DHT22;26146;51.114;5.654;2023-07-20T05:45:10;18.90;99.90
40434;DHT22;26146;51.114;5.654;2023-07-20T05:49:11;18.90;99.90
40434;DHT22;26146;51.114;5.654;2023-07-20T05:53:12;19.00;99.90
40434;DHT22;26146;51.114;5.654;2023-07-20T05:57:13;19.10;99.90
40434;DHT22;26146;51.114;5.654;2023-07-20T06:01:14;19.00;99.90
40434;DHT22;26146;51.114;5.654;2023-07-20T06:05:15;19.30;99.90
40434;DHT22;26146;51.114;5.654;2023-07-20T06:09:19;19.10;99.90
40434;DHT22;26146;51.114;5.654;2023-07-20T06:13:22;19.50;99.90
40434;DHT22;26146;51.114;5.654;2023-07-20T06:17:23;19.90;99.90
40434;DHT22;26146;51.114;5.654;2023-07-20T06:21:24;20.20;99.90
40434;DHT22;26146;51.114;5.654;2023-07-20T06:25:25;20.30;99.90
40434;DHT22;26146;51.114;5.654;2023-07-20T06:29:26;20.50;99.90
40434;DHT22;26146;51.114;5.654;2023-07-20T06:33:27;20.40;99.90
40434;DHT22;26146;51.114;5.654;2023-07-20T06:37:28;20.40;99.90
40434;DHT22;26146;51.114;5.654;2023-07-20T06:41:29;20.30;99.90
40434;DHT22;26146;51.114;5.654;2023-07-20T06:45:30;20.30;99.90
40434;DHT22;26146;51.114;5.654;2023-07-20T06:49:31;20.50;99.90
40434;DHT22;26146;51.114;5.654;2023-07-20T06:53:33;20.30;99.90
40434;DHT22;26146;51.114;5.654;2023-07-20T06:57:34;20.40;99.90
40434;DHT22;26146;51.114;5.654;2023-07-20T07:01:35;20.40;99.90
40434;DHT22;26146;51.114;5.654;2023-07-20T07:05:37;20.10;99.90
40434;DHT22;26146;51.114;5.654;2023-07-20T07:09:41;20.20;99.90
40434;DHT22;26146;51.114;5.654;2023-07-20T07:13:42;20.50;99.90
40434;DHT22;26146;51.114;5.654;2023-07-20T07:17:42;21.10;99.90
40434;DHT22;26146;51.114;5.654;2023-07-20T07:21:44;21.50;99.90
40434;DHT22;26146;51.114;5.654;2023-07-20T07:25:45;21.10;99.90
40434;DHT22;26146;51.114;5.654;2023-07-20T07:29:46;20.60;99.90
40434;DHT22;26146;51.114;5.654;2023-07-20T07:33:49;20.40;99.90
40434;DHT22;26146;51.114;5.654;2023-07-20T07:37:49;20.50;99.90
40434;DHT22;26146;51.114;5.654;2023-07-20T07:41:50;20.40;99.90
40434;DHT22;26146;51.114;5.654;2023-07-20T07:45:54;20.60;99.90
40434;DHT22;26146;51.114;5.654;2023-07-20T07:49:56;21.50;99.90
40434;DHT22;26146;51.114;5.654;2023-07-20T07:53:58;21.60;99.90
40434;DHT22;26146;51.114;5.654;2023-07-20T07:57:59;21.60;99.90
40434;DHT22;26146;51.114;5.654;2023-07-20T08:02:00;21.60;99.90
40434;DHT22;26146;51.114;5.654;2023-07-20T08:06:00;21.60;99.90
40434;DHT22;26146;51.114;5.654;2023-07-20T08:10:05;21.40;99.90
40434;DHT22;26146;51.114;5.654;2023-07-20T08:14:06;21.20;99.90
40434;DHT22;26146;51.114;5.654;2023-07-20T08:18:10;21.10;99.90
40434;DHT22;26146;51.114;5.654;2023-07-20T08:22:11;21.30;99.90
40434;DHT22;26146;51.114;5.654;2023-07-20T08:26:13;21.30;99.90
40434;DHT22;26146;51.114;5.654;2023-07-20T08:30:14;21.20;99.90
40434;DHT22;26146;51.114;5.654;2023-07-20T08:34:15;21.50;99.90
40434;DHT22;26146;51.114;5.654;2023-07-20T08:38:16;21.60;99.90
40434;DHT22;26146;51.114;5.654;2023-07-20T08:42:17;21.50;99.90
40434;DHT22;26146;51.114;5.654;2023-07-20T08:46:18;21.90;99.90
40434;DHT22;26146;51.114;5.654;2023-07-20T08:50:19;22.30;99.90
40434;DHT22;26146;51.114;5.654;2023-07-20T08:54:22;22.70;99.90
40434;DHT22;26146;51.114;5.654;2023-07-20T08:58:25;22.90;99.80
40434;DHT22;26146;51.114;5.654;2023-07-20T09:02:27;22.90;99.90
40434;DHT22;26146;51.114;5.654;2023-07-20T09:06:28;23.10;99.10
40434;DHT22;26146;51.114;5.654;2023-07-20T09:10:29;23.00;98.80
40434;DHT22;26146;51.114;5.654;2023-07-20T09:14:30;22.70;99.90
40434;DHT22;26146;51.114;5.654;2023-07-20T09:18:32;22.70;99.90
40434;DHT22;26146;51.114;5.654;2023-07-20T09:22:35;23.00;99.90
40434;DHT22;26146;51.114;5.654;2023-07-20T09:26:41;23.10;99.90
40434;DHT22;26146;51.114;5.654;2023-07-20T09:30:43;23.20;98.70
40434;DHT22;26146;51.114;5.654;2023-07-20T09:34:44;22.90;99.00
40434;DHT22;26146;51.114;5.654;2023-07-20T09:38:45;22.90;98.80
40434;DHT22;26146;51.114;5.654;2023-07-20T09:42:46;22.80;99.20
40434;DHT22;26146;51.114;5.654;2023-07-20T09:46:48;22.90;99.30
40434;DHT22;26146;51.114;5.654;2023-07-20T09:50:50;23.00;98.10
40434;DHT22;26146;51.114;5.654;2023-07-20T09:54:51;23.30;98.10
40434;DHT22;26146;51.114;5.654;2023-07-20T09:58:53;23.10;98.20
40434;DHT22;26146;51.114;5.654;2023-07-20T10:02:56;22.70;99.00
40434;DHT22;26146;51.114;5.654;2023-07-20T10:06:58;22.70;99.00
40434;DHT22;26146;51.114;5.654;2023-07-20T10:11:02;23.20;96.60
40434;DHT22;26146;51.114;5.654;2023-07-20T10:15:23;23.80;96.80
40434;DHT22;26146;51.114;5.654;2023-07-20T10:19:46;24.30;95.20
40434;DHT22;26146;51.114;5.654;2023-07-20T10:23:48;24.50;94.70
40434;DHT22;26146;51.114;5.654;2023-07-20T10:27:49;24.80;94.10
40434;DHT22;26146;51.114;5.654;2023-07-20T10:31:51;25.60;91.70
40434;DHT22;26146;51.114;5.654;2023-07-20T10:39:56;25.20;91.90
40434;DHT22;26146;51.114;5.654;2023-07-20T10:44:09;25.20;93.10
40434;DHT22;26146;51.114;5.654;2023-07-20T10:48:21;24.80;92.20
40434;DHT22;26146;51.114;5.654;2023-07-20T10:52:23;25.00;91.60
40434;DHT22;26146;51.114;5.654;2023-07-20T10:56:26;25.00;91.30
40434;DHT22;26146;51.114;5.654;2023-07-20T11:00:30;24.40;91.90
40434;DHT22;26146;51.114;5.654;2023-07-20T11:04:44;24.20;92.10
40434;DHT22;26146;51.114;5.654;2023-07-20T11:08:45;24.20;92.40
40434;DHT22;26146;51.114;5.654;2023-07-20T11:13:22;24.20;93.50
40434;DHT22;26146;51.114;5.654;2023-07-20T11:17:31;24.10;93.90
40434;DHT22;26146;51.114;5.654;2023-07-20T11:21:37;23.90;92.40
40434;DHT22;26146;51.114;5.654;2023-07-20T11:25:39;23.90;93.90
40434;DHT22;26146;51.114;5.654;2023-07-20T11:29:45;24.10;93.40
40434;DHT22;26146;51.114;5.654;2023-07-20T11:33:46;24.00;93.30
40434;DHT22;26146;51.114;5.654;2023-07-20T11:37:47;24.20;92.50
40434;DHT22;26146;51.114;5.654;2023-07-20T11:41:52;24.50;92.00
40434;DHT22;26146;51.114;5.654;2023-07-20T11:45:56;24.50;91.90
40434;DHT22;26146;51.114;5.654;2023-07-20T11:50:03;24.80;91.70
40434;DHT22;26146;51.114;5.654;2023-07-20T11:54:07;25.00;91.90
40434;DHT22;26146;51.114;5.654;2023-07-20T11:58:13;24.90;91.00
40434;DHT22;26146;51.114;5.654;2023-07-20T12:02:17;25.00;90.00
40434;DHT22;26146;51.114;5.654;2023-07-20T12:06:18;24.90;90.80
40434;DHT22;26146;51.114;5.654;2023-07-20T12:10:27;24.90;90.90
40434;DHT22;26146;51.114;5.654;2023-07-20T12:14:29;25.10;90.60
40434;DHT22;26146;51.114;5.654;2023-07-20T12:18:35;25.10;91.60
40434;DHT22;26146;51.114;5.654;2023-07-20T12:22:40;25.30;90.80
40434;DHT22;26146;51.114;5.654;2023-07-20T12:26:44;25.50;90.60
40434;DHT22;26146;51.114;5.654;2023-07-20T12:30:46;25.90;90.70
40434;DHT22;26146;51.114;5.654;2023-07-20T12:34:47;26.00;89.40
40434;DHT22;26146;51.114;5.654;2023-07-20T12:38:48;25.70;88.30
40434;DHT22;26146;51.114;5.654;2023-07-20T12:42:49;25.80;89.40
40434;DHT22;26146;51.114;5.654;2023-07-20T12:46:50;25.90;90.20
40434;DHT22;26146;51.114;5.654;2023-07-20T12:50:51;26.30;88.80
40434;DHT22;26146;51.114;5.654;2023-07-20T12:54:53;26.90;89.80
40434;DHT22;26146;51.114;5.654;2023-07-20T12:58:56;27.00;86.80
40434;DHT22;26146;51.114;5.654;2023-07-20T13:02:57;27.10;85.80
40434;DHT22;26146;51.114;5.654;2023-07-20T13:06:58;27.10;84.70
40434;DHT22;26146;51.114;5.654;2023-07-20T13:11:00;26.80;87.70
40434;DHT22;26146;51.114;5.654;2023-07-20T13:15:03;26.50;87.20
40434;DHT22;26146;51.114;5.654;2023-07-20T13:19:08;26.60;87.50
40434;DHT22;26146;51.114;5.654;2023-07-20T13:23:09;26.40;87.00
40434;DHT22;26146;51.114;5.654;2023-07-20T13:27:11;26.20;87.70
40434;DHT22;26146;51.114;5.654;2023-07-20T13:31:12;26.20;88.20
40434;DHT22;26146;51.114;5.654;2023-07-20T13:35:13;26.40;88.40
40434;DHT22;26146;51.114;5.654;2023-07-20T13:39:16;26.70;88.30
40434;DHT22;26146;51.114;5.654;2023-07-20T13:43:17;26.80;86.80
40434;DHT22;26146;51.114;5.654;2023-07-20T13:47:18;26.50;80.90
40434;DHT22;26146;51.114;5.654;2023-07-20T13:51:19;26.20;82.30
40434;DHT22;26146;51.114;5.654;2023-07-20T13:55:20;26.20;80.80
40434;DHT22;26146;51.114;5.654;2023-07-20T13:59:21;26.30;82.30
40434;DHT22;26146;51.114;5.654;2023-07-20T14:03:22;26.20;81.90
40434;DHT22;26146;51.114;5.654;2023-07-20T14:07:23;26.30;82.30
40434;DHT22;26146;51.114;5.654;2023-07-20T14:11:24;26.30;82.90
40434;DHT22;26146;51.114;5.654;2023-07-20T14:15:25;26.10;83.70
40434;DHT22;26146;51.114;5.654;2023-07-20T14:19:26;26.00;81.00
40434;DHT22;26146;51.114;5.654;2023-07-20T14:23:28;26.30;79.70
40434;DHT22;26146;51.114;5.654;2023-07-20T14:27:32;26.40;78.50
40434;DHT22;26146;51.114;5.654;2023-07-20T14:31:33;26.60;78.10
40434;DHT22;26146;51.114;5.654;2023-07-20T14:35:34;26.60;76.20
40434;DHT22;26146;51.114;5.654;2023-07-20T14:39:35;26.60;77.50
40434;DHT22;26146;51.114;5.654;2023-07-20T14:43:36;26.70;77.10
40434;DHT22;26146;51.114;5.654;2023-07-20T14:47:37;26.90;76.20
40434;DHT22;26146;51.114;5.654;2023-07-20T14:51:38;27.10;77.50
40434;DHT22;26146;51.114;5.654;2023-07-20T14:55:44;27.30;75.20
40434;DHT22;26146;51.114;5.654;2023-07-20T14:59:47;27.20;77.80
40434;DHT22;26146;51.114;5.654;2023-07-20T15:03:50;26.90;79.30
40434;DHT22;26146;51.114;5.654;2023-07-20T15:07:55;27.00;79.00
40434;DHT22;26146;51.114;5.654;2023-07-20T15:11:56;27.10;79.00
40434;DHT22;26146;51.114;5.654;2023-07-20T15:15:57;27.30;79.40
40434;DHT22;26146;51.114;5.654;2023-07-20T15:19:58;27.10;80.30
40434;DHT22;26146;51.114;5.654;2023-07-20T15:23:59;26.70;81.00
40434;DHT22;26146;51.114;5.654;2023-07-20T15:28:00;26.90;79.40
40434;DHT22;26146;51.114;5.654;2023-07-20T15:32:01;26.70;78.70
40434;DHT22;26146;51.114;5.654;2023-07-20T15:36:03;26.20;80.30
40434;DHT22;26146;51.114;5.654;2023-07-20T15:40:05;25.90;82.70
40434;DHT22;26146;51.114;5.654;2023-07-20T15:44:06;26.00;83.70
40434;DHT22;26146;51.114;5.654;2023-07-20T15:48:07;25.90;81.70
40434;DHT22;26146;51.114;5.654;2023-07-20T15:52:08;26.00;80.40
40434;DHT22;26146;51.114;5.654;2023-07-20T15:56:09;25.90;79.30
40434;DHT22;26146;51.114;5.654;2023-07-20T16:00:10;25.80;79.40
40434;DHT22;26146;51.114;5.654;2023-07-20T16:04:12;25.60;79.40
40434;DHT22;26146;51.114;5.654;2023-07-20T16:08:16;25.40;78.20
40434;DHT22;26146;51.114;5.654;2023-07-20T16:12:17;25.20;78.10
40434;DHT22;26146;51.114;5.654;2023-07-20T16:16:18;25.10;78.40
40434;DHT22;26146;51.114;5.654;2023-07-20T16:20:19;24.90;81.40
40434;DHT22;26146;51.114;5.654;2023-07-20T16:24:20;25.00;80.30
40434;DHT22;26146;51.114;5.654;2023-07-20T16:28:22;24.80;80.90
40434;DHT22;26146;51.114;5.654;2023-07-20T16:32:23;24.60;82.20
40434;DHT22;26146;51.114;5.654;2023-07-20T16:36:24;24.70;82.20
40434;DHT22;26146;51.114;5.654;2023-07-20T16:40:25;24.50;84.30
40434;DHT22;26146;51.114;5.654;2023-07-20T16:44:26;24.40;85.00
40434;DHT22;26146;51.114;5.654;2023-07-20T16:48:27;24.20;86.10
40434;DHT22;26146;51.114;5.654;2023-07-20T16:52:28;24.40;87.60
40434;DHT22;26146;51.114;5.654;2023-07-20T16:56:29;24.00;89.30
40434;DHT22;26146;51.114;5.654;2023-07-20T17:00:30;23.90;90.10
40434;DHT22;26146;51.114;5.654;2023-07-20T17:04:31;23.70;90.50
40434;DHT22;26146;51.114;5.654;2023-07-20T17:08:32;23.70;90.30
40434;DHT22;26146;51.114;5.654;2023-07-20T17:12:37;23.50;90.90
40434;DHT22;26146;51.114;5.654;2023-07-20T17:16:38;23.40;91.40
40434;DHT22;26146;51.114;5.654;2023-07-20T17:20:39;23.30;91.80
40434;DHT22;26146;51.114;5.654;2023-07-20T17:24:39;23.30;91.90
40434;DHT22;26146;51.114;5.654;2023-07-20T17:28:41;23.30;91.70
40434;DHT22;26146;51.114;5.654;2023-07-20T17:32:42;23.20;92.20
40434;DHT22;26146;51.114;5.654;2023-07-20T17:36:43;23.30;92.10
40434;DHT22;26146;51.114;5.654;2023-07-20T17:40:44;23.10;92.20
40434;DHT22;26146;51.114;5.654;2023-07-20T17:44:45;22.70;92.70
40434;DHT22;26146;51.114;5.654;2023-07-20T17:48:46;22.80;92.80
40434;DHT22;26146;51.114;5.654;2023-07-20T17:52:48;22.70;93.20
40434;DHT22;26146;51.114;5.654;2023-07-20T17:56:50;22.60;93.20
40434;DHT22;26146;51.114;5.654;2023-07-20T18:00:50;22.40;94.00
40434;DHT22;26146;51.114;5.654;2023-07-20T18:04:53;22.20;94.20
40434;DHT22;26146;51.114;5.654;2023-07-20T18:08:54;22.10;94.30
40434;DHT22;26146;51.114;5.654;2023-07-20T18:12:55;22.10;94.80
40434;DHT22;26146;51.114;5.654;2023-07-20T18:16:56;21.90;95.10
40434;DHT22;26146;51.114;5.654;2023-07-20T18:20:57;21.80;95.70
40434;DHT22;26146;51.114;5.654;2023-07-20T18:24:58;21.60;96.20
40434;DHT22;26146;51.114;5.654;2023-07-20T18:29:00;21.80;96.20
40434;DHT22;26146;51.114;5.654;2023-07-20T18:33:02;21.60;96.80
40434;DHT22;26146;51.114;5.654;2023-07-20T18:37:03;21.40;98.10
40434;DHT22;26146;51.114;5.654;2023-07-20T18:41:04;20.80;99.90
40434;DHT22;26146;51.114;5.654;2023-07-20T18:45:05;20.10;99.90
40434;DHT22;26146;51.114;5.654;2023-07-20T18:49:06;19.80;99.90
40434;DHT22;26146;51.114;5.654;2023-07-20T18:53:08;19.40;99.90
40434;DHT22;26146;51.114;5.654;2023-07-20T18:57:09;19.00;99.90
40434;DHT22;26146;51.114;5.654;2023-07-20T19:01:10;18.90;99.90
40434;DHT22;26146;51.114;5.654;2023-07-20T19:05:11;18.70;99.90
40434;DHT22;26146;51.114;5.654;2023-07-20T19:09:12;18.70;99.90
40434;DHT22;26146;51.114;5.654;2023-07-20T19:13:14;18.70;99.90
40434;DHT22;26146;51.114;5.654;2023-07-20T19:17:15;18.90;99.90
40434;DHT22;26146;51.114;5.654;2023-07-20T19:21:16;19.10;99.90
40434;DHT22;26146;51.114;5.654;2023-07-20T19:25:17;19.10;99.90
40434;DHT22;26146;51.114;5.654;2023-07-20T19:29:18;19.10;99.90
40434;DHT22;26146;51.114;5.654;2023-07-20T19:33:20;19.20;99.90
40434;DHT22;26146;51.114;5.654;2023-07-20T19:37:21;19.20;99.90
40434;DHT22;26146;51.114;5.654;2023-07-20T19:41:22;19.20;99.90
40434;DHT22;26146;51.114;5.654;2023-07-20T19:45:23;19.30;99.90
40434;DHT22;26146;51.114;5.654;2023-07-20T19:49:25;19.40;99.90
40434;DHT22;26146;51.114;5.654;2023-07-20T19:53:26;19.40;99.90
40434;DHT22;26146;51.114;5.654;2023-07-20T19:57:27;19.40;99.90
40434;DHT22;26146;51.114;5.654;2023-07-20T20:01:29;19.60;99.90
40434;DHT22;26146;51.114;5.654;2023-07-20T20:05:30;19.60;99.90
40434;DHT22;26146;51.114;5.654;2023-07-20T20:09:31;19.50;99.90
40434;DHT22;26146;51.114;5.654;2023-07-20T20:13:32;19.50;99.90
40434;DHT22;26146;51.114;5.654;2023-07-20T20:17:34;19.50;99.90
40434;DHT22;26146;51.114;5.654;2023-07-20T20:21:35;19.40;99.90
40434;DHT22;26146;51.114;5.654;2023-07-20T20:25:36;19.50;99.90
40434;DHT22;26146;51.114;5.654;2023-07-20T20:29:37;19.50;99.90
40434;DHT22;26146;51.114;5.654;2023-07-20T20:33:38;19.50;99.90
40434;DHT22;26146;51.114;5.654;2023-07-20T20:37:42;19.40;99.90
40434;DHT22;26146;51.114;5.654;2023-07-20T20:41:43;18.90;99.90
40434;DHT22;26146;51.114;5.654;2023-07-20T20:45:47;18.90;99.90
40434;DHT22;26146;51.114;5.654;2023-07-20T20:49:48;19.00;99.90
40434;DHT22;26146;51.114;5.654;2023-07-20T20:53:50;19.00;99.90
40434;DHT22;26146;51.114;5.654;2023-07-20T20:57:51;19.00;99.90
40434;DHT22;26146;51.114;5.654;2023-07-20T21:01:55;19.00;99.90
40434;DHT22;26146;51.114;5.654;2023-07-20T21:05:57;18.70;99.90
40434;DHT22;26146;51.114;5.654;2023-07-20T21:09:58;18.60;99.90
40434;DHT22;26146;51.114;5.654;2023-07-20T21:13:59;18.30;99.90
40434;DHT22;26146;51.114;5.654;2023-07-20T21:18:00;18.40;99.90
40434;DHT22;26146;51.114;5.654;2023-07-20T21:22:01;18.30;99.90
40434;DHT22;26146;51.114;5.654;2023-07-20T21:26:02;18.20;99.90
40434;DHT22;26146;51.114;5.654;2023-07-20T21:30:03;18.10;99.90
40434;DHT22;26146;51.114;5.654;2023-07-20T21:34:04;18.00;99.90
40434;DHT22;26146;51.114;5.654;2023-07-20T21:38:05;18.00;99.90
40434;DHT22;26146;51.114;5.654;2023-07-20T21:42:07;17.80;99.90
40434;DHT22;26146;51.114;5.654;2023-07-20T21:46:08;17.70;99.90
40434;DHT22;26146;51.114;5.654;2023-07-20T21:50:09;17.60;99.90
40434;DHT22;26146;51.114;5.654;2023-07-20T21:54:10;17.50;99.90
40434;DHT22;26146;51.114;5.654;2023-07-20T21:58:11;17.40;99.90
40434;DHT22;26146;51.114;5.654;2023-07-20T22:02:15;17.30;99.90
40434;DHT22;26146;51.114;5.654;2023-07-20T22:06:17;17.30;99.90
40434;DHT22;26146;51.114;5.654;2023-07-20T22:10:18;17.20;99.90
40434;DHT22;26146;51.114;5.654;2023-07-20T22:14:19;17.20;99.90
40434;DHT22;26146;51.114;5.654;2023-07-20T22:18:21;17.10;99.90
40434;DHT22;26146;51.114;5.654;2023-07-20T22:22:22;17.00;99.90
40434;DHT22;26146;51.114;5.654;2023-07-20T22:26:23;16.90;99.90
40434;DHT22;26146;51.114;5.654;2023-07-20T22:30:24;17.00;99.90
40434;DHT22;26146;51.114;5.654;2023-07-20T22:34:29;16.90;99.90
40434;DHT22;26146;51.114;5.654;2023-07-20T22:38:36;16.80;99.90
40434;DHT22;26146;51.114;5.654;2023-07-20T22:42:37;16.70;99.90
40434;DHT22;26146;51.114;5.654;2023-07-20T22:46:39;16.60;99.90
40434;DHT22;26146;51.114;5.654;2023-07-20T22:50:41;16.60;99.90
40434;DHT22;26146;51.114;5.654;2023-07-20T22:54:42;16.50;99.90
40434;DHT22;26146;51.114;5.654;2023-07-20T22:58:43;16.60;99.90
40434;DHT22;26146;51.114;5.654;2023-07-20T23:02:44;16.60;99.90
40434;DHT22;26146;51.114;5.654;2023-07-20T23:06:45;16.50;99.90
40434;DHT22;26146;51.114;5.654;2023-07-20T23:10:46;16.50;99.90
40434;DHT22;26146;51.114;5.654;2023-07-20T23:14:47;16.50;99.90
40434;DHT22;26146;51.114;5.654;2023-07-20T23:18:48;16.40;99.90
40434;DHT22;26146;51.114;5.654;2023-07-20T23:22:50;16.40;99.90
40434;DHT22;26146;51.114;5.654;2023-07-20T23:26:51;16.40;99.90
40434;DHT22;26146;51.114;5.654;2023-07-20T23:30:54;16.40;99.90
40434;DHT22;26146;51.114;5.654;2023-07-20T23:34:54;16.40;99.90
40434;DHT22;26146;51.114;5.654;2023-07-20T23:38:55;16.40;99.90
40434;DHT22;26146;51.114;5.654;2023-07-20T23:42:57;16.10;99.90
40434;DHT22;26146;51.114;5.654;2023-07-20T23:46:58;16.10;99.90
40434;DHT22;26146;51.114;5.654;2023-07-20T23:50:59;16.20;99.90
40434;DHT22;26146;51.114;5.654;2023-07-20T23:55:07;16.30;99.90
40434;DHT22;26146;51.114;5.654;2023-07-20T23:59:09;16.30;99.90
